sensor_id;sensor_type;location;lat;lon;timestamp;P1;durP1;ratioP1;P2;durP2;ratioP2
54641;SDS011;40536;53.194;5.728;2023-12-04T00:00:48;656.17;;;615.28;;
54641;SDS011;40536;53.194;5.728;2023-12-04T00:03:14;618.28;;;578.53;;
54641;SDS011;40536;53.194;5.728;2023-12-04T00:05:42;668.38;;;624.42;;
54641;SDS011;40536;53.194;5.728;2023-12-04T00:08:08;647.65;;;606.80;;
54641;SDS011;40536;53.194;5.728;2023-12-04T00:10:34;653.28;;;610.83;;
54641;SDS011;40536;53.194;5.728;2023-12-04T00:12:59;700.80;;;656.92;;
54641;SDS011;40536;53.194;5.728;2023-12-04T00:15:25;678.80;;;636.55;;
54641;SDS011;40536;53.194;5.728;2023-12-04T00:17:51;654.42;;;614.47;;
54641;SDS011;40536;53.194;5.728;2023-12-04T00:20:16;690.17;;;646.13;;
54641;SDS011;40536;53.194;5.728;2023-12-04T00:22:42;629.67;;;590.22;;
54641;SDS011;40536;53.194;5.728;2023-12-04T00:25:08;683.97;;;640.03;;
54641;SDS011;40536;53.194;5.728;2023-12-04T00:27:33;642.75;;;602.72;;
54641;SDS011;40536;53.194;5.728;2023-12-04T00:29:59;652.80;;;610.15;;
54641;SDS011;40536;53.194;5.728;2023-12-04T00:32:25;648.92;;;608.25;;
54641;SDS011;40536;53.194;5.728;2023-12-04T00:34:50;614.38;;;574.70;;
54641;SDS011;40536;53.194;5.728;2023-12-04T00:37:16;710.60;;;665.00;;
54641;SDS011;40536;53.194;5.728;2023-12-04T00:39:42;653.78;;;612.60;;
54641;SDS011;40536;53.194;5.728;2023-12-04T00:42:07;661.30;;;619.63;;
54641;SDS011;40536;53.194;5.728;2023-12-04T00:44:33;643.28;;;602.60;;
54641;SDS011;40536;53.194;5.728;2023-12-04T00:46:58;630.70;;;591.30;;
54641;SDS011;40536;53.194;5.728;2023-12-04T00:49:24;627.88;;;587.63;;
54641;SDS011;40536;53.194;5.728;2023-12-04T00:51:50;637.75;;;596.70;;
54641;SDS011;40536;53.194;5.728;2023-12-04T00:54:15;636.47;;;596.13;;
54641;SDS011;40536;53.194;5.728;2023-12-04T00:56:41;632.85;;;593.22;;
54641;SDS011;40536;53.194;5.728;2023-12-04T00:59:08;663.53;;;622.10;;
54641;SDS011;40536;53.194;5.728;2023-12-04T01:01:35;613.85;;;575.30;;
54641;SDS011;40536;53.194;5.728;2023-12-04T01:04:01;646.95;;;606.50;;
54641;SDS011;40536;53.194;5.728;2023-12-04T01:06:27;651.30;;;609.63;;
54641;SDS011;40536;53.194;5.728;2023-12-04T01:08:53;651.30;;;609.08;;
54641;SDS011;40536;53.194;5.728;2023-12-04T01:11:19;707.83;;;663.42;;
54641;SDS011;40536;53.194;5.728;2023-12-04T01:13:44;653.03;;;611.20;;
54641;SDS011;40536;53.194;5.728;2023-12-04T01:16:11;666.58;;;625.53;;
54641;SDS011;40536;53.194;5.728;2023-12-04T01:18:37;620.75;;;580.83;;
54641;SDS011;40536;53.194;5.728;2023-12-04T01:21:04;624.65;;;585.00;;
54641;SDS011;40536;53.194;5.728;2023-12-04T01:23:30;580.55;;;542.85;;
54641;SDS011;40536;53.194;5.728;2023-12-04T01:25:56;622.35;;;582.53;;
54641;SDS011;40536;53.194;5.728;2023-12-04T01:28:23;627.05;;;589.08;;
54641;SDS011;40536;53.194;5.728;2023-12-04T01:30:48;596.47;;;558.42;;
54641;SDS011;40536;53.194;5.728;2023-12-04T01:33:14;640.92;;;600.40;;
54641;SDS011;40536;53.194;5.728;2023-12-04T01:35:39;597.17;;;561.05;;
54641;SDS011;40536;53.194;5.728;2023-12-04T01:38:05;594.05;;;557.13;;
54641;SDS011;40536;53.194;5.728;2023-12-04T01:40:31;563.38;;;526.00;;
54641;SDS011;40536;53.194;5.728;2023-12-04T01:42:57;649.65;;;607.80;;
54641;SDS011;40536;53.194;5.728;2023-12-04T01:45:22;641.20;;;601.00;;
54641;SDS011;40536;53.194;5.728;2023-12-04T01:47:48;586.67;;;549.22;;
54641;SDS011;40536;53.194;5.728;2023-12-04T01:50:13;632.13;;;591.47;;
54641;SDS011;40536;53.194;5.728;2023-12-04T01:52:40;661.63;;;618.05;;
54641;SDS011;40536;53.194;5.728;2023-12-04T01:55:06;652.53;;;611.05;;
54641;SDS011;40536;53.194;5.728;2023-12-04T01:57:34;619.67;;;580.75;;
54641;SDS011;40536;53.194;5.728;2023-12-04T02:00:00;571.53;;;535.72;;
54641;SDS011;40536;53.194;5.728;2023-12-04T02:02:29;537.30;;;502.30;;
54641;SDS011;40536;53.194;5.728;2023-12-04T02:04:55;653.28;;;611.47;;
54641;SDS011;40536;53.194;5.728;2023-12-04T02:07:22;645.72;;;602.42;;
54641;SDS011;40536;53.194;5.728;2023-12-04T02:09:48;677.25;;;633.28;;
54641;SDS011;40536;53.194;5.728;2023-12-04T02:12:13;676.78;;;633.90;;
54641;SDS011;40536;53.194;5.728;2023-12-04T02:14:39;600.33;;;560.28;;
54641;SDS011;40536;53.194;5.728;2023-12-04T02:17:05;576.88;;;540.05;;
54641;SDS011;40536;53.194;5.728;2023-12-04T02:19:33;623.90;;;583.80;;
54641;SDS011;40536;53.194;5.728;2023-12-04T02:21:59;687.78;;;644.42;;
54641;SDS011;40536;53.194;5.728;2023-12-04T02:24:24;699.53;;;655.15;;
54641;SDS011;40536;53.194;5.728;2023-12-04T02:27:18;645.65;;;603.83;;
54641;SDS011;40536;53.194;5.728;2023-12-04T02:29:43;662.50;;;618.38;;
54641;SDS011;40536;53.194;5.728;2023-12-04T02:32:18;680.47;;;636.90;;
54641;SDS011;40536;53.194;5.728;2023-12-04T02:34:45;711.78;;;665.92;;
54641;SDS011;40536;53.194;5.728;2023-12-04T02:37:14;675.58;;;631.47;;
54641;SDS011;40536;53.194;5.728;2023-12-04T02:39:41;721.58;;;674.35;;
54641;SDS011;40536;53.194;5.728;2023-12-04T02:42:08;702.40;;;657.40;;
54641;SDS011;40536;53.194;5.728;2023-12-04T02:44:33;719.42;;;671.95;;
54641;SDS011;40536;53.194;5.728;2023-12-04T02:46:59;725.38;;;678.25;;
54641;SDS011;40536;53.194;5.728;2023-12-04T02:49:25;751.92;;;704.58;;
54641;SDS011;40536;53.194;5.728;2023-12-04T02:51:51;739.95;;;692.50;;
54641;SDS011;40536;53.194;5.728;2023-12-04T02:54:17;734.90;;;687.78;;
54641;SDS011;40536;53.194;5.728;2023-12-04T02:56:42;725.28;;;678.55;;
54641;SDS011;40536;53.194;5.728;2023-12-04T02:59:08;732.55;;;685.13;;
54641;SDS011;40536;53.194;5.728;2023-12-04T03:01:33;749.03;;;701.10;;
54641;SDS011;40536;53.194;5.728;2023-12-04T03:03:59;730.97;;;684.00;;
54641;SDS011;40536;53.194;5.728;2023-12-04T03:06:25;735.17;;;686.47;;
54641;SDS011;40536;53.194;5.728;2023-12-04T03:08:51;749.63;;;701.08;;
54641;SDS011;40536;53.194;5.728;2023-12-04T03:11:17;747.20;;;698.53;;
54641;SDS011;40536;53.194;5.728;2023-12-04T03:13:42;729.15;;;683.35;;
54641;SDS011;40536;53.194;5.728;2023-12-04T03:16:15;702.33;;;657.92;;
54641;SDS011;40536;53.194;5.728;2023-12-04T03:18:42;722.85;;;675.88;;
54641;SDS011;40536;53.194;5.728;2023-12-04T03:21:08;746.55;;;698.35;;
54641;SDS011;40536;53.194;5.728;2023-12-04T03:23:33;734.28;;;688.08;;
54641;SDS011;40536;53.194;5.728;2023-12-04T03:25:59;727.10;;;680.58;;
54641;SDS011;40536;53.194;5.728;2023-12-04T03:28:25;701.42;;;657.03;;
54641;SDS011;40536;53.194;5.728;2023-12-04T03:30:51;689.45;;;645.30;;
54641;SDS011;40536;53.194;5.728;2023-12-04T03:33:16;685.97;;;642.10;;
54641;SDS011;40536;53.194;5.728;2023-12-04T03:35:42;687.08;;;643.17;;
54641;SDS011;40536;53.194;5.728;2023-12-04T03:38:09;682.60;;;639.00;;
54641;SDS011;40536;53.194;5.728;2023-12-04T03:40:34;682.63;;;639.40;;
54641;SDS011;40536;53.194;5.728;2023-12-04T03:43:00;648.38;;;607.58;;
54641;SDS011;40536;53.194;5.728;2023-12-04T03:45:25;690.67;;;646.25;;
54641;SDS011;40536;53.194;5.728;2023-12-04T03:47:51;721.00;;;675.42;;
54641;SDS011;40536;53.194;5.728;2023-12-04T03:50:17;674.65;;;632.15;;
54641;SDS011;40536;53.194;5.728;2023-12-04T03:52:42;671.13;;;629.72;;
54641;SDS011;40536;53.194;5.728;2023-12-04T03:55:08;676.45;;;633.97;;
54641;SDS011;40536;53.194;5.728;2023-12-04T03:57:34;713.03;;;668.05;;
54641;SDS011;40536;53.194;5.728;2023-12-04T04:00:00;720.28;;;674.50;;
54641;SDS011;40536;53.194;5.728;2023-12-04T04:02:26;695.47;;;651.65;;
54641;SDS011;40536;53.194;5.728;2023-12-04T04:04:53;677.53;;;635.00;;
54641;SDS011;40536;53.194;5.728;2023-12-04T04:07:19;656.30;;;614.28;;
54641;SDS011;40536;53.194;5.728;2023-12-04T04:09:45;670.20;;;627.00;;
54641;SDS011;40536;53.194;5.728;2023-12-04T04:12:10;709.25;;;664.63;;
54641;SDS011;40536;53.194;5.728;2023-12-04T04:14:36;712.58;;;666.22;;
54641;SDS011;40536;53.194;5.728;2023-12-04T04:17:02;671.08;;;629.05;;
54641;SDS011;40536;53.194;5.728;2023-12-04T04:19:28;664.92;;;621.92;;
54641;SDS011;40536;53.194;5.728;2023-12-04T04:21:56;680.28;;;638.60;;
54641;SDS011;40536;53.194;5.728;2023-12-04T04:24:22;667.28;;;625.47;;
54641;SDS011;40536;53.194;5.728;2023-12-04T04:26:49;704.92;;;659.97;;
54641;SDS011;40536;53.194;5.728;2023-12-04T04:29:15;707.90;;;662.30;;
54641;SDS011;40536;53.194;5.728;2023-12-04T04:31:40;700.35;;;654.58;;
54641;SDS011;40536;53.194;5.728;2023-12-04T04:34:06;685.60;;;643.55;;
54641;SDS011;40536;53.194;5.728;2023-12-04T04:36:31;688.78;;;644.95;;
54641;SDS011;40536;53.194;5.728;2023-12-04T04:38:57;697.45;;;653.20;;
54641;SDS011;40536;53.194;5.728;2023-12-04T04:41:22;689.75;;;646.40;;
54641;SDS011;40536;53.194;5.728;2023-12-04T04:43:48;695.60;;;651.40;;
54641;SDS011;40536;53.194;5.728;2023-12-04T04:46:14;691.17;;;647.83;;
54641;SDS011;40536;53.194;5.728;2023-12-04T04:48:40;716.63;;;670.25;;
54641;SDS011;40536;53.194;5.728;2023-12-04T04:51:06;674.78;;;631.88;;
54641;SDS011;40536;53.194;5.728;2023-12-04T04:53:31;700.17;;;655.00;;
54641;SDS011;40536;53.194;5.728;2023-12-04T04:55:57;686.50;;;642.65;;
54641;SDS011;40536;53.194;5.728;2023-12-04T04:58:23;681.50;;;639.28;;
54641;SDS011;40536;53.194;5.728;2023-12-04T05:00:48;680.80;;;638.00;;
54641;SDS011;40536;53.194;5.728;2023-12-04T05:03:14;702.15;;;657.90;;
54641;SDS011;40536;53.194;5.728;2023-12-04T05:05:40;702.33;;;658.13;;
54641;SDS011;40536;53.194;5.728;2023-12-04T05:08:05;719.85;;;672.90;;
54641;SDS011;40536;53.194;5.728;2023-12-04T05:10:31;670.17;;;628.72;;
54641;SDS011;40536;53.194;5.728;2023-12-04T05:12:57;684.95;;;642.08;;
54641;SDS011;40536;53.194;5.728;2023-12-04T05:15:22;666.05;;;624.78;;
54641;SDS011;40536;53.194;5.728;2023-12-04T05:17:48;681.75;;;638.80;;
54641;SDS011;40536;53.194;5.728;2023-12-04T05:20:14;664.63;;;622.33;;
54641;SDS011;40536;53.194;5.728;2023-12-04T05:22:40;694.15;;;649.38;;
54641;SDS011;40536;53.194;5.728;2023-12-04T05:25:06;693.03;;;649.70;;
54641;SDS011;40536;53.194;5.728;2023-12-04T05:27:33;687.33;;;644.00;;
54641;SDS011;40536;53.194;5.728;2023-12-04T05:29:58;713.97;;;669.42;;
54641;SDS011;40536;53.194;5.728;2023-12-04T05:32:24;718.83;;;672.92;;
54641;SDS011;40536;53.194;5.728;2023-12-04T05:34:49;676.35;;;633.53;;
54641;SDS011;40536;53.194;5.728;2023-12-04T05:37:15;705.25;;;660.28;;
54641;SDS011;40536;53.194;5.728;2023-12-04T05:39:41;700.10;;;656.00;;
54641;SDS011;40536;53.194;5.728;2023-12-04T05:42:07;644.83;;;604.00;;
54641;SDS011;40536;53.194;5.728;2023-12-04T05:44:33;664.95;;;624.38;;
54641;SDS011;40536;53.194;5.728;2023-12-04T05:46:59;693.65;;;650.30;;
54641;SDS011;40536;53.194;5.728;2023-12-04T05:49:25;719.25;;;673.92;;
54641;SDS011;40536;53.194;5.728;2023-12-04T05:51:51;717.40;;;673.15;;
54641;SDS011;40536;53.194;5.728;2023-12-04T05:54:17;702.10;;;659.42;;
54641;SDS011;40536;53.194;5.728;2023-12-04T05:56:45;713.65;;;669.65;;
54641;SDS011;40536;53.194;5.728;2023-12-04T05:59:11;659.47;;;619.92;;
54641;SDS011;40536;53.194;5.728;2023-12-04T06:01:37;650.15;;;612.05;;
54641;SDS011;40536;53.194;5.728;2023-12-04T06:04:03;690.83;;;648.65;;
54641;SDS011;40536;53.194;5.728;2023-12-04T06:06:29;709.55;;;664.58;;
54641;SDS011;40536;53.194;5.728;2023-12-04T06:08:54;688.40;;;646.08;;
54641;SDS011;40536;53.194;5.728;2023-12-04T06:11:20;691.22;;;650.08;;
54641;SDS011;40536;53.194;5.728;2023-12-04T06:13:45;721.47;;;677.50;;
54641;SDS011;40536;53.194;5.728;2023-12-04T06:16:11;682.60;;;642.28;;
54641;SDS011;40536;53.194;5.728;2023-12-04T06:18:37;673.45;;;634.58;;
54641;SDS011;40536;53.194;5.728;2023-12-04T06:21:03;657.60;;;617.72;;
54641;SDS011;40536;53.194;5.728;2023-12-04T06:23:29;627.33;;;591.42;;
54641;SDS011;40536;53.194;5.728;2023-12-04T06:25:57;640.95;;;604.05;;
54641;SDS011;40536;53.194;5.728;2023-12-04T06:28:23;603.10;;;570.03;;
54641;SDS011;40536;53.194;5.728;2023-12-04T06:30:49;621.38;;;586.22;;
54641;SDS011;40536;53.194;5.728;2023-12-04T06:33:15;611.33;;;577.42;;
54641;SDS011;40536;53.194;5.728;2023-12-04T06:35:43;648.75;;;611.25;;
54641;SDS011;40536;53.194;5.728;2023-12-04T06:38:09;609.13;;;575.50;;
54641;SDS011;40536;53.194;5.728;2023-12-04T06:40:40;598.00;;;565.58;;
54641;SDS011;40536;53.194;5.728;2023-12-04T06:43:05;608.95;;;574.85;;
54641;SDS011;40536;53.194;5.728;2023-12-04T06:45:32;619.40;;;584.10;;
54641;SDS011;40536;53.194;5.728;2023-12-04T06:47:59;588.13;;;555.97;;
54641;SDS011;40536;53.194;5.728;2023-12-04T06:50:25;577.92;;;545.75;;
54641;SDS011;40536;53.194;5.728;2023-12-04T06:52:51;590.33;;;557.55;;
54641;SDS011;40536;53.194;5.728;2023-12-04T06:55:17;617.42;;;581.45;;
54641;SDS011;40536;53.194;5.728;2023-12-04T06:57:43;562.30;;;531.78;;
54641;SDS011;40536;53.194;5.728;2023-12-04T07:00:09;569.85;;;539.55;;
54641;SDS011;40536;53.194;5.728;2023-12-04T07:02:37;566.88;;;536.58;;
54641;SDS011;40536;53.194;5.728;2023-12-04T07:05:03;586.78;;;554.60;;
54641;SDS011;40536;53.194;5.728;2023-12-04T07:07:29;560.28;;;529.88;;
54641;SDS011;40536;53.194;5.728;2023-12-04T07:09:55;556.88;;;526.60;;
54641;SDS011;40536;53.194;5.728;2023-12-04T07:12:20;562.72;;;532.45;;
54641;SDS011;40536;53.194;5.728;2023-12-04T07:14:46;586.38;;;553.88;;
54641;SDS011;40536;53.194;5.728;2023-12-04T07:17:12;570.03;;;538.58;;
54641;SDS011;40536;53.194;5.728;2023-12-04T07:19:38;552.17;;;522.88;;
54641;SDS011;40536;53.194;5.728;2023-12-04T07:22:07;530.17;;;501.30;;
54641;SDS011;40536;53.194;5.728;2023-12-04T07:24:33;521.22;;;493.08;;
54641;SDS011;40536;53.194;5.728;2023-12-04T07:26:59;527.72;;;499.50;;
54641;SDS011;40536;53.194;5.728;2023-12-04T07:29:26;493.35;;;467.25;;
54641;SDS011;40536;53.194;5.728;2023-12-04T07:31:53;443.42;;;420.77;;
54641;SDS011;40536;53.194;5.728;2023-12-04T07:34:19;369.85;;;351.10;;
54641;SDS011;40536;53.194;5.728;2023-12-04T07:36:45;468.80;;;443.88;;
54641;SDS011;40536;53.194;5.728;2023-12-04T07:39:13;450.80;;;427.35;;
54641;SDS011;40536;53.194;5.728;2023-12-04T07:41:39;425.05;;;403.38;;
54641;SDS011;40536;53.194;5.728;2023-12-04T07:44:05;418.70;;;396.88;;
54641;SDS011;40536;53.194;5.728;2023-12-04T07:46:31;398.30;;;377.27;;
54641;SDS011;40536;53.194;5.728;2023-12-04T07:48:57;369.13;;;350.00;;
54641;SDS011;40536;53.194;5.728;2023-12-04T07:51:23;335.50;;;317.55;;
54641;SDS011;40536;53.194;5.728;2023-12-04T07:53:48;323.92;;;307.63;;
54641;SDS011;40536;53.194;5.728;2023-12-04T07:56:14;307.38;;;291.58;;
54641;SDS011;40536;53.194;5.728;2023-12-04T07:58:40;308.83;;;293.05;;
54641;SDS011;40536;53.194;5.728;2023-12-04T08:01:06;285.65;;;270.00;;
54641;SDS011;40536;53.194;5.728;2023-12-04T08:03:32;253.02;;;239.90;;
54641;SDS011;40536;53.194;5.728;2023-12-04T08:05:57;269.05;;;255.55;;
54641;SDS011;40536;53.194;5.728;2023-12-04T08:08:26;294.45;;;278.90;;
54641;SDS011;40536;53.194;5.728;2023-12-04T08:10:51;268.70;;;254.40;;
54641;SDS011;40536;53.194;5.728;2023-12-04T08:13:18;196.95;;;186.63;;
54641;SDS011;40536;53.194;5.728;2023-12-04T08:15:46;168.68;;;159.40;;
54641;SDS011;40536;53.194;5.728;2023-12-04T08:18:12;157.95;;;148.70;;
54641;SDS011;40536;53.194;5.728;2023-12-04T08:20:38;191.73;;;181.70;;
54641;SDS011;40536;53.194;5.728;2023-12-04T08:23:03;126.60;;;119.28;;
54641;SDS011;40536;53.194;5.728;2023-12-04T08:25:29;123.07;;;116.03;;
54641;SDS011;40536;53.194;5.728;2023-12-04T08:27:55;144.90;;;136.20;;
54641;SDS011;40536;53.194;5.728;2023-12-04T08:30:20;119.53;;;112.50;;
54641;SDS011;40536;53.194;5.728;2023-12-04T08:32:46;88.50;;;82.75;;
54641;SDS011;40536;53.194;5.728;2023-12-04T08:35:12;89.15;;;83.18;;
54641;SDS011;40536;53.194;5.728;2023-12-04T08:37:39;80.95;;;75.57;;
54641;SDS011;40536;53.194;5.728;2023-12-04T08:40:05;79.68;;;74.25;;
54641;SDS011;40536;53.194;5.728;2023-12-04T08:42:33;65.53;;;60.70;;
54641;SDS011;40536;53.194;5.728;2023-12-04T08:44:59;70.60;;;65.63;;
54641;SDS011;40536;53.194;5.728;2023-12-04T08:47:24;56.42;;;51.83;;
54641;SDS011;40536;53.194;5.728;2023-12-04T08:49:50;73.22;;;67.85;;
54641;SDS011;40536;53.194;5.728;2023-12-04T08:52:15;55.92;;;51.53;;
54641;SDS011;40536;53.194;5.728;2023-12-04T08:54:41;59.22;;;54.63;;
54641;SDS011;40536;53.194;5.728;2023-12-04T08:57:07;95.25;;;89.53;;
54641;SDS011;40536;53.194;5.728;2023-12-04T08:59:34;66.35;;;61.42;;
54641;SDS011;40536;53.194;5.728;2023-12-04T09:02:00;50.30;;;46.50;;
54641;SDS011;40536;53.194;5.728;2023-12-04T09:04:29;42.33;;;38.63;;
54641;SDS011;40536;53.194;5.728;2023-12-04T09:06:56;46.47;;;42.45;;
54641;SDS011;40536;53.194;5.728;2023-12-04T09:09:21;47.22;;;43.22;;
54641;SDS011;40536;53.194;5.728;2023-12-04T09:11:47;32.50;;;29.23;;
54641;SDS011;40536;53.194;5.728;2023-12-04T09:14:13;38.22;;;34.60;;
54641;SDS011;40536;53.194;5.728;2023-12-04T09:16:39;33.75;;;30.67;;
54641;SDS011;40536;53.194;5.728;2023-12-04T09:19:05;31.30;;;28.30;;
54641;SDS011;40536;53.194;5.728;2023-12-04T09:21:31;30.45;;;27.25;;
54641;SDS011;40536;53.194;5.728;2023-12-04T09:23:57;27.85;;;23.65;;
54641;SDS011;40536;53.194;5.728;2023-12-04T09:26:23;25.33;;;22.52;;
54641;SDS011;40536;53.194;5.728;2023-12-04T09:28:49;27.08;;;21.08;;
54641;SDS011;40536;53.194;5.728;2023-12-04T09:31:17;23.30;;;20.42;;
54641;SDS011;40536;53.194;5.728;2023-12-04T09:33:43;23.25;;;20.80;;
54641;SDS011;40536;53.194;5.728;2023-12-04T09:36:09;27.45;;;19.92;;
54641;SDS011;40536;53.194;5.728;2023-12-04T09:38:35;21.30;;;19.05;;
54641;SDS011;40536;53.194;5.728;2023-12-04T09:41:01;22.02;;;19.73;;
54641;SDS011;40536;53.194;5.728;2023-12-04T09:43:30;21.08;;;18.75;;
54641;SDS011;40536;53.194;5.728;2023-12-04T09:45:57;25.40;;;20.27;;
54641;SDS011;40536;53.194;5.728;2023-12-04T09:48:26;24.85;;;17.80;;
54641;SDS011;40536;53.194;5.728;2023-12-04T09:50:54;20.65;;;17.35;;
54641;SDS011;40536;53.194;5.728;2023-12-04T09:53:20;21.52;;;17.35;;
54641;SDS011;40536;53.194;5.728;2023-12-04T09:55:48;20.85;;;17.90;;
54641;SDS011;40536;53.194;5.728;2023-12-04T09:58:14;20.45;;;18.25;;
54641;SDS011;40536;53.194;5.728;2023-12-04T10:00:41;20.08;;;17.17;;
54641;SDS011;40536;53.194;5.728;2023-12-04T10:03:08;22.23;;;18.15;;
54641;SDS011;40536;53.194;5.728;2023-12-04T10:05:33;19.83;;;17.17;;
54641;SDS011;40536;53.194;5.728;2023-12-04T10:07:59;19.33;;;17.02;;
54641;SDS011;40536;53.194;5.728;2023-12-04T10:10:25;22.30;;;17.38;;
54641;SDS011;40536;53.194;5.728;2023-12-04T10:12:51;23.05;;;20.67;;
54641;SDS011;40536;53.194;5.728;2023-12-04T10:15:16;19.60;;;17.27;;
54641;SDS011;40536;53.194;5.728;2023-12-04T10:17:42;19.48;;;16.40;;
54641;SDS011;40536;53.194;5.728;2023-12-04T10:20:12;17.45;;;15.57;;
54641;SDS011;40536;53.194;5.728;2023-12-04T10:22:56;20.13;;;16.92;;
54641;SDS011;40536;53.194;5.728;2023-12-04T10:25:27;19.90;;;15.65;;
54641;SDS011;40536;53.194;5.728;2023-12-04T10:28:07;19.25;;;16.42;;
54641;SDS011;40536;53.194;5.728;2023-12-04T10:30:36;18.55;;;16.50;;
54641;SDS011;40536;53.194;5.728;2023-12-04T10:33:02;17.90;;;15.90;;
54641;SDS011;40536;53.194;5.728;2023-12-04T10:35:30;22.17;;;17.13;;
54641;SDS011;40536;53.194;5.728;2023-12-04T10:37:57;18.85;;;16.50;;
54641;SDS011;40536;53.194;5.728;2023-12-04T10:40:27;18.25;;;16.35;;
54641;SDS011;40536;53.194;5.728;2023-12-04T10:45:39;17.75;;;16.00;;
54641;SDS011;40536;53.194;5.728;2023-12-04T10:48:06;18.48;;;16.60;;
54641;SDS011;40536;53.194;5.728;2023-12-04T10:50:35;20.67;;;18.35;;
54641;SDS011;40536;53.194;5.728;2023-12-04T10:53:03;18.02;;;16.13;;
54641;SDS011;40536;53.194;5.728;2023-12-04T10:55:29;18.67;;;16.73;;
54641;SDS011;40536;53.194;5.728;2023-12-04T10:57:55;16.90;;;15.10;;
54641;SDS011;40536;53.194;5.728;2023-12-04T11:00:22;19.33;;;17.33;;
54641;SDS011;40536;53.194;5.728;2023-12-04T11:02:49;17.77;;;15.75;;
54641;SDS011;40536;53.194;5.728;2023-12-04T11:05:19;18.55;;;16.52;;
54641;SDS011;40536;53.194;5.728;2023-12-04T11:08:00;18.60;;;15.60;;
54641;SDS011;40536;53.194;5.728;2023-12-04T11:10:27;17.02;;;14.98;;
54641;SDS011;40536;53.194;5.728;2023-12-04T11:12:57;17.60;;;15.77;;
54641;SDS011;40536;53.194;5.728;2023-12-04T11:15:31;18.88;;;15.07;;
54641;SDS011;40536;53.194;5.728;2023-12-04T11:18:05;18.08;;;14.75;;
54641;SDS011;40536;53.194;5.728;2023-12-04T11:20:37;16.65;;;14.82;;
54641;SDS011;40536;53.194;5.728;2023-12-04T11:23:07;16.38;;;14.63;;
54641;SDS011;40536;53.194;5.728;2023-12-04T11:25:34;16.60;;;14.52;;
54641;SDS011;40536;53.194;5.728;2023-12-04T11:28:00;18.20;;;14.90;;
54641;SDS011;40536;53.194;5.728;2023-12-04T11:30:27;17.88;;;15.18;;
54641;SDS011;40536;53.194;5.728;2023-12-04T11:32:54;18.95;;;15.20;;
54641;SDS011;40536;53.194;5.728;2023-12-04T11:35:25;17.15;;;14.68;;
54641;SDS011;40536;53.194;5.728;2023-12-04T11:37:51;15.73;;;14.13;;
54641;SDS011;40536;53.194;5.728;2023-12-04T11:40:17;16.38;;;14.68;;
54641;SDS011;40536;53.194;5.728;2023-12-04T11:42:43;17.63;;;15.80;;
54641;SDS011;40536;53.194;5.728;2023-12-04T11:45:10;19.50;;;17.38;;
54641;SDS011;40536;53.194;5.728;2023-12-04T11:50:16;16.85;;;15.07;;
54641;SDS011;40536;53.194;5.728;2023-12-04T11:52:43;18.10;;;14.98;;
54641;SDS011;40536;53.194;5.728;2023-12-04T11:55:09;21.80;;;17.60;;
54641;SDS011;40536;53.194;5.728;2023-12-04T11:57:37;18.40;;;16.38;;
54641;SDS011;40536;53.194;5.728;2023-12-04T12:05:17;19.20;;;15.50;;
54641;SDS011;40536;53.194;5.728;2023-12-04T12:07:47;18.77;;;14.85;;
54641;SDS011;40536;53.194;5.728;2023-12-04T12:10:13;17.35;;;15.60;;
54641;SDS011;40536;53.194;5.728;2023-12-04T12:12:39;16.77;;;14.98;;
54641;SDS011;40536;53.194;5.728;2023-12-04T12:15:08;16.83;;;14.80;;
54641;SDS011;40536;53.194;5.728;2023-12-04T12:17:34;17.65;;;15.80;;
54641;SDS011;40536;53.194;5.728;2023-12-04T12:20:00;18.08;;;15.07;;
54641;SDS011;40536;53.194;5.728;2023-12-04T12:22:29;17.63;;;15.40;;
54641;SDS011;40536;53.194;5.728;2023-12-04T12:24:55;17.15;;;14.88;;
54641;SDS011;40536;53.194;5.728;2023-12-04T12:27:21;17.33;;;15.25;;
54641;SDS011;40536;53.194;5.728;2023-12-04T12:29:46;18.83;;;14.90;;
54641;SDS011;40536;53.194;5.728;2023-12-04T12:32:12;20.35;;;15.73;;
54641;SDS011;40536;53.194;5.728;2023-12-04T12:34:38;18.83;;;15.15;;
54641;SDS011;40536;53.194;5.728;2023-12-04T12:37:03;18.02;;;15.25;;
54641;SDS011;40536;53.194;5.728;2023-12-04T12:39:31;17.00;;;15.20;;
54641;SDS011;40536;53.194;5.728;2023-12-04T12:41:57;18.13;;;15.90;;
54641;SDS011;40536;53.194;5.728;2023-12-04T12:44:22;17.25;;;15.45;;
54641;SDS011;40536;53.194;5.728;2023-12-04T12:46:48;17.80;;;15.65;;
54641;SDS011;40536;53.194;5.728;2023-12-04T12:49:18;19.83;;;15.55;;
54641;SDS011;40536;53.194;5.728;2023-12-04T12:51:45;17.00;;;14.77;;
54641;SDS011;40536;53.194;5.728;2023-12-04T12:54:11;18.38;;;14.45;;
54641;SDS011;40536;53.194;5.728;2023-12-04T12:56:37;18.92;;;15.43;;
54641;SDS011;40536;53.194;5.728;2023-12-04T12:59:02;19.75;;;17.75;;
54641;SDS011;40536;53.194;5.728;2023-12-04T13:01:30;18.33;;;15.77;;
54641;SDS011;40536;53.194;5.728;2023-12-04T13:03:57;19.85;;;16.75;;
54641;SDS011;40536;53.194;5.728;2023-12-04T13:06:22;18.67;;;16.33;;
54641;SDS011;40536;53.194;5.728;2023-12-04T13:08:48;18.65;;;16.63;;
54641;SDS011;40536;53.194;5.728;2023-12-04T13:11:14;18.90;;;16.90;;
54641;SDS011;40536;53.194;5.728;2023-12-04T13:13:39;19.60;;;17.17;;
54641;SDS011;40536;53.194;5.728;2023-12-04T13:16:05;19.67;;;16.95;;
54641;SDS011;40536;53.194;5.728;2023-12-04T13:18:31;18.08;;;16.15;;
54641;SDS011;40536;53.194;5.728;2023-12-04T13:21:01;22.38;;;16.75;;
54641;SDS011;40536;53.194;5.728;2023-12-04T13:23:29;17.17;;;15.38;;
54641;SDS011;40536;53.194;5.728;2023-12-04T13:25:56;18.80;;;15.68;;
54641;SDS011;40536;53.194;5.728;2023-12-04T13:28:21;17.70;;;15.82;;
54641;SDS011;40536;53.194;5.728;2023-12-04T13:30:47;18.25;;;15.38;;
54641;SDS011;40536;53.194;5.728;2023-12-04T13:33:13;19.02;;;16.48;;
54641;SDS011;40536;53.194;5.728;2023-12-04T13:35:39;17.92;;;15.80;;
54641;SDS011;40536;53.194;5.728;2023-12-04T13:38:05;17.92;;;15.43;;
54641;SDS011;40536;53.194;5.728;2023-12-04T13:40:38;18.98;;;16.55;;
54641;SDS011;40536;53.194;5.728;2023-12-04T13:43:06;18.13;;;15.30;;
54641;SDS011;40536;53.194;5.728;2023-12-04T13:45:50;17.40;;;15.45;;
54641;SDS011;40536;53.194;5.728;2023-12-04T13:48:19;18.48;;;16.30;;
54641;SDS011;40536;53.194;5.728;2023-12-04T13:50:46;18.63;;;16.33;;
54641;SDS011;40536;53.194;5.728;2023-12-04T13:53:12;18.77;;;16.73;;
54641;SDS011;40536;53.194;5.728;2023-12-04T13:55:39;17.00;;;14.57;;
54641;SDS011;40536;53.194;5.728;2023-12-04T13:58:24;17.65;;;14.40;;
54641;SDS011;40536;53.194;5.728;2023-12-04T14:01:04;19.65;;;15.80;;
54641;SDS011;40536;53.194;5.728;2023-12-04T14:03:39;17.80;;;14.88;;
54641;SDS011;40536;53.194;5.728;2023-12-04T14:06:05;17.30;;;14.85;;
54641;SDS011;40536;53.194;5.728;2023-12-04T14:08:31;18.02;;;15.02;;
54641;SDS011;40536;53.194;5.728;2023-12-04T14:10:56;17.65;;;15.15;;
54641;SDS011;40536;53.194;5.728;2023-12-04T14:13:22;17.33;;;14.48;;